Aérodrome :
LOGIN :

S'inscrire | Disclaimer

   EN    FR    IT 

 










Légende :    VFR   VFR Marginal   IFR   IFR Intensif   IFR Très Intensif
Visi : 
Plafond : 
>= 8 km
>= 3000ft
5 à 8 km
1000 à 3000 ft
1500m à 5 km
500 à 1000 ft
800 à 1500m
200 à 500 ft
< 800m
< 200 ft
Symboles :   Orages  Brouillard  Fortes neiges  Fortes précipitations  Vent > 20 kt
SIGMETs :   Divers  Orages  Givrage  Turbulence  Onde Orograph.  Cendres Volcan.






- Altitude de l'aérodrome : 141 ft
- Code IATA : SKS


EKSP - Srydstrup Vojens

DERNIER METAR :
  • 220120Z 29011KT 8000 SCT005 BKN009 06/06 Q1031

METARs EXPIRÉS :
  • 220116Z 29012KT 8000 SCT005 BKN009 06/06 Q1031
  • 220050Z 29012KT 3000 -DZ BR SCT003 OVC005 06/06 Q1031
  • 220020Z 28014KT 3000 -DZ BR SCT002 OVC004 06/06 Q1031
  • 212350Z 28012KT 2000 -DZ BR SCT002 OVC003 06/06 Q1031
  • 212320Z 28012KT 1800 -DZ BR SCT001 OVC002 07/06 Q1031
  • 212250Z 28012KT 1800 -DZ BR SCT001 OVC002 07/06 Q1031

TAF TAF EKSP
Valide du 22 à 00h jusqu'au 23 à 00h UTC


212318Z 2200/2224 26010KT 1500 BR -DZ BKN002
BECMG 2200/2202 30011KT 9999 NSW BKN020
TEMPO 2202/2208 6000 BKN006



MET'MAP, la Météo Aéronautique d'un coup d'oeil ! - Copyright ORBIFLY Décembre 2007 - Disclaimer

ORBIFLY MET'MAP TEAM :

Programmation & Développement : Alexandra Zaïnal
Sur une idée originale de : Baudouin d'Aumeries
Assistance à la programmation : Marc-Olivier Méhu
Soutien technique & logistique : Manuel Goepfert

Contact : metmap@orbifly.com




SOURCES & CREDITS :

   NOAA